sensor_id;sensor_type;location;lat;lon;timestamp;pressure;altitude;pressure_sealevel;temperature;humidity
46756;BME280;32506;52.826;-1.192;2022-08-07T00:02:35;102124.44;;;15.10;35.14
46756;BME280;32506;52.826;-1.192;2022-08-07T00:05:28;102124.25;;;15.05;35.13
46756;BME280;32506;52.826;-1.192;2022-08-07T00:08:18;102129.41;;;15.00;35.16
46756;BME280;32506;52.826;-1.192;2022-08-07T00:11:11;102123.59;;;14.97;35.27
46756;BME280;32506;52.826;-1.192;2022-08-07T00:13:51;102127.75;;;14.92;35.25
46756;BME280;32506;52.826;-1.192;2022-08-07T00:16:22;102118.41;;;14.88;35.35
46756;BME280;32506;52.826;-1.192;2022-08-07T00:18:51;102117.97;;;14.85;35.16
46756;BME280;32506;52.826;-1.192;2022-08-07T00:21:39;102112.38;;;14.80;35.16
46756;BME280;32506;52.826;-1.192;2022-08-07T00:24:05;102118.19;;;14.76;35.15
46756;BME280;32506;52.826;-1.192;2022-08-07T00:26:47;102123.13;;;14.73;35.19
46756;BME280;32506;52.826;-1.192;2022-08-07T00:29:40;102122.72;;;14.69;35.18
46756;BME280;32506;52.826;-1.192;2022-08-07T00:32:09;102119.81;;;14.64;35.28
46756;BME280;32506;52.826;-1.192;2022-08-07T00:34:54;102119.34;;;14.60;35.20
46756;BME280;32506;52.826;-1.192;2022-08-07T00:37:30;102122.66;;;14.56;35.30
46756;BME280;32506;52.826;-1.192;2022-08-07T00:40:03;102119.53;;;14.52;35.12
46756;BME280;32506;52.826;-1.192;2022-08-07T00:42:45;102121.78;;;14.49;35.42
46756;BME280;32506;52.826;-1.192;2022-08-07T00:45:15;102122.19;;;14.46;35.16
46756;BME280;32506;52.826;-1.192;2022-08-07T00:47:50;102115.56;;;14.41;35.33
46756;BME280;32506;52.826;-1.192;2022-08-07T00:50:55;102118.00;;;14.36;35.47
46756;BME280;32506;52.826;-1.192;2022-08-07T00:53:21;102114.06;;;14.32;35.53
46756;BME280;32506;52.826;-1.192;2022-08-07T00:55:48;102117.16;;;14.29;35.44
46756;BME280;32506;52.826;-1.192;2022-08-07T00:58:35;102104.94;;;14.26;35.50
46756;BME280;32506;52.826;-1.192;2022-08-07T01:01:14;102104.72;;;14.21;35.40
46756;BME280;32506;52.826;-1.192;2022-08-07T01:03:43;102106.75;;;14.19;35.46
46756;BME280;32506;52.826;-1.192;2022-08-07T01:06:29;102107.38;;;14.15;35.51
46756;BME280;32506;52.826;-1.192;2022-08-07T01:09:17;102104.88;;;14.13;35.48
46756;BME280;32506;52.826;-1.192;2022-08-07T01:11:46;102099.47;;;14.06;35.40
46756;BME280;32506;52.826;-1.192;2022-08-07T01:14:13;102096.34;;;14.03;35.47
46756;BME280;32506;52.826;-1.192;2022-08-07T01:16:41;102109.97;;;14.01;35.32
46756;BME280;32506;52.826;-1.192;2022-08-07T01:19:30;102102.53;;;13.97;35.52
46756;BME280;32506;52.826;-1.192;2022-08-07T01:22:24;102100.00;;;13.95;35.29
46756;BME280;32506;52.826;-1.192;2022-08-07T01:25:23;102102.50;;;13.90;35.27
46756;BME280;32506;52.826;-1.192;2022-08-07T01:27:51;102090.47;;;13.86;35.24
46756;BME280;32506;52.826;-1.192;2022-08-07T01:30:24;102094.38;;;13.83;35.54
46756;BME280;32506;52.826;-1.192;2022-08-07T01:32:55;102101.19;;;13.79;35.52
46756;BME280;32506;52.826;-1.192;2022-08-07T01:35:27;102090.00;;;13.75;35.44
46756;BME280;32506;52.826;-1.192;2022-08-07T01:38:02;102093.91;;;13.73;35.59
46756;BME280;32506;52.826;-1.192;2022-08-07T01:40:29;102093.44;;;13.69;35.36
46756;BME280;32506;52.826;-1.192;2022-08-07T01:42:58;102095.72;;;13.66;35.68
46756;BME280;32506;52.826;-1.192;2022-08-07T01:45:32;102091.56;;;13.63;35.63
46756;BME280;32506;52.826;-1.192;2022-08-07T01:48:08;102082.88;;;13.61;35.50
46756;BME280;32506;52.826;-1.192;2022-08-07T01:51:04;102085.94;;;13.58;35.74
46756;BME280;32506;52.826;-1.192;2022-08-07T01:53:34;102083.00;;;13.53;35.61
46756;BME280;32506;52.826;-1.192;2022-08-07T01:56:23;102082.38;;;13.51;35.69
46756;BME280;32506;52.826;-1.192;2022-08-07T01:59:24;102080.91;;;13.48;35.68
46756;BME280;32506;52.826;-1.192;2022-08-07T02:02:18;102076.78;;;13.46;35.56
46756;BME280;32506;52.826;-1.192;2022-08-07T02:05:29;102088.09;;;13.41;35.66
46756;BME280;32506;52.826;-1.192;2022-08-07T02:08:16;102087.63;;;13.37;35.50
46756;BME280;32506;52.826;-1.192;2022-08-07T02:11:06;102082.63;;;13.34;35.78
46756;BME280;32506;52.826;-1.192;2022-08-07T02:13:36;102074.13;;;13.31;35.28
46756;BME280;32506;52.826;-1.192;2022-08-07T02:16:10;102077.00;;;13.29;35.32
46756;BME280;32506;52.826;-1.192;2022-08-07T02:18:41;102087.13;;;13.27;35.32
46756;BME280;32506;52.826;-1.192;2022-08-07T02:21:12;102075.94;;;13.23;35.44
46756;BME280;32506;52.826;-1.192;2022-08-07T02:23:42;102070.97;;;13.20;35.69
46756;BME280;32506;52.826;-1.192;2022-08-07T02:26:09;102076.91;;;13.16;35.88
46756;BME280;32506;52.826;-1.192;2022-08-07T02:28:36;102078.97;;;13.14;36.22
46756;BME280;32506;52.826;-1.192;2022-08-07T02:31:10;102080.19;;;13.11;35.90
46756;BME280;32506;52.826;-1.192;2022-08-07T02:33:39;102077.03;;;13.07;36.03
46756;BME280;32506;52.826;-1.192;2022-08-07T02:36:08;102073.75;;;13.05;35.86
46756;BME280;32506;52.826;-1.192;2022-08-07T02:38:36;102072.25;;;13.03;36.19
46756;BME280;32506;52.826;-1.192;2022-08-07T02:41:03;102069.13;;;12.99;36.05
46756;BME280;32506;52.826;-1.192;2022-08-07T02:43:30;102067.66;;;12.97;36.13
46756;BME280;32506;52.826;-1.192;2022-08-07T02:46:03;102069.72;;;12.95;36.61
46756;BME280;32506;52.826;-1.192;2022-08-07T02:48:32;102075.25;;;12.93;36.46
46756;BME280;32506;52.826;-1.192;2022-08-07T02:51:22;102068.59;;;12.89;36.66
46756;BME280;32506;52.826;-1.192;2022-08-07T02:54:07;102067.13;;;12.86;36.10
46756;BME280;32506;52.826;-1.192;2022-08-07T02:56:37;102069.41;;;12.83;36.50
46756;BME280;32506;52.826;-1.192;2022-08-07T02:59:08;102064.38;;;12.80;36.00
46756;BME280;32506;52.826;-1.192;2022-08-07T03:01:38;102069.31;;;12.76;36.28
46756;BME280;32506;52.826;-1.192;2022-08-07T03:04:08;102066.00;;;12.74;36.28
46756;BME280;32506;52.826;-1.192;2022-08-07T03:06:39;102067.19;;;12.71;36.47
46756;BME280;32506;52.826;-1.192;2022-08-07T03:09:06;102061.41;;;12.68;36.10
46756;BME280;32506;52.826;-1.192;2022-08-07T03:11:34;102055.38;;;12.66;36.00
46756;BME280;32506;52.826;-1.192;2022-08-07T03:14:03;102057.44;;;12.64;36.11
46756;BME280;32506;52.826;-1.192;2022-08-07T03:16:32;102061.34;;;12.61;36.01
46756;BME280;32506;52.826;-1.192;2022-08-07T03:19:01;102058.19;;;12.57;35.92
46756;BME280;32506;52.826;-1.192;2022-08-07T03:21:34;102055.91;;;12.54;35.82
46756;BME280;32506;52.826;-1.192;2022-08-07T03:24:02;102053.56;;;12.51;36.08
46756;BME280;32506;52.826;-1.192;2022-08-07T03:26:32;102048.59;;;12.48;36.26
46756;BME280;32506;52.826;-1.192;2022-08-07T03:29:00;102056.03;;;12.46;35.94
46756;BME280;32506;52.826;-1.192;2022-08-07T03:31:27;102054.72;;;12.42;36.12
46756;BME280;32506;52.826;-1.192;2022-08-07T03:33:59;102057.78;;;12.39;35.93
46756;BME280;32506;52.826;-1.192;2022-08-07T03:36:27;102058.16;;;12.36;36.02
46756;BME280;32506;52.826;-1.192;2022-08-07T03:38:56;102055.03;;;12.32;35.78
46756;BME280;32506;52.826;-1.192;2022-08-07T03:41:25;102046.34;;;12.30;35.79
46756;BME280;32506;52.826;-1.192;2022-08-07T03:43:55;102047.56;;;12.28;35.90
46756;BME280;32506;52.826;-1.192;2022-08-07T03:46:22;102046.09;;;12.25;35.98
46756;BME280;32506;52.826;-1.192;2022-08-07T03:48:52;102044.59;;;12.22;35.86
46756;BME280;32506;52.826;-1.192;2022-08-07T03:51:20;102038.78;;;12.19;35.97
46756;BME280;32506;52.826;-1.192;2022-08-07T03:53:46;102039.97;;;12.16;36.08
46756;BME280;32506;52.826;-1.192;2022-08-07T03:56:18;102041.19;;;12.14;36.02
46756;BME280;32506;52.826;-1.192;2022-08-07T03:58:46;102045.06;;;12.11;35.87
46756;BME280;32506;52.826;-1.192;2022-08-07T04:01:14;102052.47;;;12.09;35.88
46756;BME280;32506;52.826;-1.192;2022-08-07T04:03:49;102053.69;;;12.06;35.56
46756;BME280;32506;52.826;-1.192;2022-08-07T04:06:19;102054.88;;;12.04;35.63
46756;BME280;32506;52.826;-1.192;2022-08-07T04:08:46;102051.53;;;12.02;35.58
46756;BME280;32506;52.826;-1.192;2022-08-07T04:11:14;102054.59;;;11.99;35.60
46756;BME280;32506;52.826;-1.192;2022-08-07T04:13:41;102052.31;;;11.96;35.92
46756;BME280;32506;52.826;-1.192;2022-08-07T04:16:08;102049.78;;;11.94;35.52
46756;BME280;32506;52.826;-1.192;2022-08-07T04:18:37;102053.66;;;11.91;35.82
46756;BME280;32506;52.826;-1.192;2022-08-07T04:21:23;102054.03;;;11.88;35.84
46756;BME280;32506;52.826;-1.192;2022-08-07T04:23:52;102053.19;;;11.88;36.04
46756;BME280;32506;52.826;-1.192;2022-08-07T04:26:22;102057.06;;;11.85;36.26
46756;BME280;32506;52.826;-1.192;2022-08-07T04:28:51;102050.25;;;11.83;35.98
46756;BME280;32506;52.826;-1.192;2022-08-07T04:31:17;102048.59;;;11.82;36.81
46756;BME280;32506;52.826;-1.192;2022-08-07T04:33:45;102055.97;;;11.80;36.70
46756;BME280;32506;52.826;-1.192;2022-08-07T04:36:13;102056.16;;;11.78;36.94
46756;BME280;32506;52.826;-1.192;2022-08-07T04:38:40;102056.16;;;11.78;37.17
46756;BME280;32506;52.826;-1.192;2022-08-07T04:41:07;102057.34;;;11.75;37.76
46756;BME280;32506;52.826;-1.192;2022-08-07T04:43:39;102057.34;;;11.75;37.72
46756;BME280;32506;52.826;-1.192;2022-08-07T04:46:12;102052.81;;;11.76;38.14
46756;BME280;32506;52.826;-1.192;2022-08-07T04:52:02;102053.88;;;11.75;37.93
46756;BME280;32506;52.826;-1.192;2022-08-07T04:54:33;102055.88;;;11.73;38.00
46756;BME280;32506;52.826;-1.192;2022-08-07T05:02:12;102055.88;;;11.73;38.68
46756;BME280;32506;52.826;-1.192;2022-08-07T05:04:55;102061.06;;;11.74;38.43
46756;BME280;32506;52.826;-1.192;2022-08-07T05:07:37;102055.69;;;11.74;38.38
46756;BME280;32506;52.826;-1.192;2022-08-07T05:10:22;102053.00;;;11.74;38.73
46756;BME280;32506;52.826;-1.192;2022-08-07T05:12:58;102058.19;;;11.76;38.34
46756;BME280;32506;52.826;-1.192;2022-08-07T05:15:36;102058.19;;;11.76;38.32
46756;BME280;32506;52.826;-1.192;2022-08-07T05:18:15;102065.03;;;11.79;38.50
46756;BME280;32506;52.826;-1.192;2022-08-07T05:20:46;102059.47;;;11.80;38.54
46756;BME280;32506;52.826;-1.192;2022-08-07T05:23:35;102063.81;;;11.81;38.79
46756;BME280;32506;52.826;-1.192;2022-08-07T05:26:04;102065.31;;;11.84;38.24
46756;BME280;32506;52.826;-1.192;2022-08-07T05:28:32;102066.13;;;11.84;38.65
46756;BME280;32506;52.826;-1.192;2022-08-07T05:31:00;102065.97;;;11.86;38.45
46756;BME280;32506;52.826;-1.192;2022-08-07T05:33:27;102057.72;;;11.87;38.61
46756;BME280;32506;52.826;-1.192;2022-08-07T05:36:00;102076.09;;;11.90;38.30
46756;BME280;32506;52.826;-1.192;2022-08-07T05:38:28;102073.25;;;11.92;38.27
46756;BME280;32506;52.826;-1.192;2022-08-07T05:41:02;102065.88;;;11.94;38.38
46756;BME280;32506;52.826;-1.192;2022-08-07T05:43:28;102066.53;;;11.96;38.34
46756;BME280;32506;52.826;-1.192;2022-08-07T05:45:57;102070.69;;;11.99;38.95
46756;BME280;32506;52.826;-1.192;2022-08-07T05:48:27;102068.66;;;12.01;38.85
46756;BME280;32506;52.826;-1.192;2022-08-07T05:50:57;102065.78;;;12.02;38.82
46756;BME280;32506;52.826;-1.192;2022-08-07T05:53:27;102070.78;;;12.05;38.55
46756;BME280;32506;52.826;-1.192;2022-08-07T05:55:53;102071.25;;;12.09;38.42
46756;BME280;32506;52.826;-1.192;2022-08-07T05:58:26;102072.72;;;12.12;38.80
46756;BME280;32506;52.826;-1.192;2022-08-07T06:00:53;102074.19;;;12.14;38.84
46756;BME280;32506;52.826;-1.192;2022-08-07T06:03:32;102076.50;;;12.17;39.20
46756;BME280;32506;52.826;-1.192;2022-08-07T06:06:02;102080.47;;;12.21;39.12
46756;BME280;32506;52.826;-1.192;2022-08-07T06:08:30;102081.75;;;12.25;39.18
46756;BME280;32506;52.826;-1.192;2022-08-07T06:11:13;102085.09;;;12.28;39.28
46756;BME280;32506;52.826;-1.192;2022-08-07T06:13:48;102086.38;;;12.32;39.87
46756;BME280;32506;52.826;-1.192;2022-08-07T06:16:30;102086.81;;;12.35;39.44
46756;BME280;32506;52.826;-1.192;2022-08-07T06:19:00;102084.59;;;12.39;39.53
46756;BME280;32506;52.826;-1.192;2022-08-07T06:21:35;102087.53;;;12.44;39.71
46756;BME280;32506;52.826;-1.192;2022-08-07T06:24:05;102084.47;;;12.47;39.52
46756;BME280;32506;52.826;-1.192;2022-08-07T06:26:31;102083.94;;;12.52;40.37
46756;BME280;32506;52.826;-1.192;2022-08-07T06:28:57;102079.00;;;12.55;40.14
46756;BME280;32506;52.826;-1.192;2022-08-07T06:31:28;102076.56;;;12.61;40.32
46756;BME280;32506;52.826;-1.192;2022-08-07T06:33:59;102068.19;;;12.64;40.40
46756;BME280;32506;52.826;-1.192;2022-08-07T06:36:32;102071.09;;;12.69;40.77
46756;BME280;32506;52.826;-1.192;2022-08-07T06:39:14;102064.31;;;12.73;40.64
46756;BME280;32506;52.826;-1.192;2022-08-07T06:41:54;102060.06;;;12.79;40.95
46756;BME280;32506;52.826;-1.192;2022-08-07T06:44:39;102059.47;;;12.83;41.14
46756;BME280;32506;52.826;-1.192;2022-08-07T06:47:27;102057.72;;;12.90;41.77
46756;BME280;32506;52.826;-1.192;2022-08-07T06:50:00;102060.00;;;12.93;41.54
46756;BME280;32506;52.826;-1.192;2022-08-07T06:52:29;102063.97;;;12.98;42.56
46756;BME280;32506;52.826;-1.192;2022-08-07T06:55:25;102072.88;;;13.05;42.58
46756;BME280;32506;52.826;-1.192;2022-08-07T06:57:57;102065.50;;;13.07;43.16
46756;BME280;32506;52.826;-1.192;2022-08-07T07:00:24;102070.06;;;13.13;43.45
46756;BME280;32506;52.826;-1.192;2022-08-07T07:02:53;102066.81;;;13.18;42.94
46756;BME280;32506;52.826;-1.192;2022-08-07T08:01:17;102073.03;;;15.52;48.47
46756;BME280;32506;52.826;-1.192;2022-08-07T08:03:46;102067.44;;;15.67;48.22
46756;BME280;32506;52.826;-1.192;2022-08-07T08:06:35;102068.69;;;15.85;47.84
46756;BME280;32506;52.826;-1.192;2022-08-07T08:09:05;102072.78;;;16.01;48.09
46756;BME280;32506;52.826;-1.192;2022-08-07T08:11:33;102072.91;;;16.19;47.92
46756;BME280;32506;52.826;-1.192;2022-08-07T08:17:28;102062.75;;;16.60;47.63
46756;BME280;32506;52.826;-1.192;2022-08-07T08:20:04;102061.78;;;16.80;48.39
46756;BME280;32506;52.826;-1.192;2022-08-07T08:25:48;102052.13;;;17.22;47.58
46756;BME280;32506;52.826;-1.192;2022-08-07T08:28:51;102054.19;;;17.45;47.85
46756;BME280;32506;52.826;-1.192;2022-08-07T08:31:30;102042.13;;;17.67;47.96
46756;BME280;32506;52.826;-1.192;2022-08-07T08:34:02;102049.19;;;17.86;47.10
46756;BME280;32506;52.826;-1.192;2022-08-07T08:36:30;102042.72;;;18.06;47.29
46756;BME280;32506;52.826;-1.192;2022-08-07T08:38:58;102044.38;;;18.25;47.31
46756;BME280;32506;52.826;-1.192;2022-08-07T08:41:46;102049.88;;;18.49;46.82
46756;BME280;32506;52.826;-1.192;2022-08-07T08:44:24;102052.50;;;18.68;46.47
46756;BME280;32506;52.826;-1.192;2022-08-07T08:49:39;102041.78;;;19.03;46.15
46756;BME280;32506;52.826;-1.192;2022-08-07T08:52:25;102040.97;;;19.26;46.47
46756;BME280;32506;52.826;-1.192;2022-08-07T08:55:09;102046.50;;;19.43;46.17
46756;BME280;32506;52.826;-1.192;2022-08-07T08:57:43;102039.06;;;19.62;46.10
46756;BME280;32506;52.826;-1.192;2022-08-07T09:00:11;102040.81;;;19.81;45.76
46756;BME280;32506;52.826;-1.192;2022-08-07T09:08:18;102038.81;;;20.45;45.84
46756;BME280;32506;52.826;-1.192;2022-08-07T09:11:01;102046.84;;;20.69;45.41
46756;BME280;32506;52.826;-1.192;2022-08-07T09:21:37;102036.31;;;21.63;44.05
46756;BME280;32506;52.826;-1.192;2022-08-07T09:24:26;102035.56;;;21.90;43.64
46756;BME280;32506;52.826;-1.192;2022-08-07T09:40:49;102013.72;;;22.94;37.96
46756;BME280;32506;52.826;-1.192;2022-08-07T09:45:59;102012.16;;;23.08;37.30
46756;BME280;32506;52.826;-1.192;2022-08-07T09:49:00;102013.06;;;23.14;37.38
46756;BME280;32506;52.826;-1.192;2022-08-07T09:54:14;102007.66;;;23.24;37.61
46756;BME280;32506;52.826;-1.192;2022-08-07T10:02:23;102004.56;;;23.58;37.54
46756;BME280;32506;52.826;-1.192;2022-08-07T10:22:21;101993.03;;;24.51;35.20
46756;BME280;32506;52.826;-1.192;2022-08-07T10:28:02;101991.41;;;24.91;35.16
46756;BME280;32506;52.826;-1.192;2022-08-07T10:41:41;101968.56;;;25.52;34.22
46756;BME280;32506;52.826;-1.192;2022-08-07T10:44:18;101976.19;;;25.60;34.05
46756;BME280;32506;52.826;-1.192;2022-08-07T10:46:59;101974.22;;;25.71;33.84
46756;BME280;32506;52.826;-1.192;2022-08-07T10:49:49;101968.44;;;25.78;32.89
46756;BME280;32506;52.826;-1.192;2022-08-07T10:52:30;101972.53;;;25.80;32.59
46756;BME280;32506;52.826;-1.192;2022-08-07T10:55:17;101966.72;;;25.87;32.93
46756;BME280;32506;52.826;-1.192;2022-08-07T10:58:02;101967.50;;;25.93;32.60
46756;BME280;32506;52.826;-1.192;2022-08-07T11:00:33;101965.59;;;25.99;32.86
46756;BME280;32506;52.826;-1.192;2022-08-07T11:03:18;101969.09;;;26.09;33.18
46756;BME280;32506;52.826;-1.192;2022-08-07T11:11:05;101962.91;;;26.28;32.69
46756;BME280;32506;52.826;-1.192;2022-08-07T11:13:38;101974.63;;;26.39;32.30
46756;BME280;32506;52.826;-1.192;2022-08-07T11:16:09;101967.16;;;26.50;32.02
46756;BME280;32506;52.826;-1.192;2022-08-07T11:18:44;101966.81;;;26.56;31.61
46756;BME280;32506;52.826;-1.192;2022-08-07T11:21:37;101965.91;;;26.66;31.43
46756;BME280;32506;52.826;-1.192;2022-08-07T11:29:34;101945.53;;;27.02;30.70
46756;BME280;32506;52.826;-1.192;2022-08-07T11:32:17;101951.19;;;27.10;30.71
46756;BME280;32506;52.826;-1.192;2022-08-07T11:34:49;101935.25;;;27.12;30.34
46756;BME280;32506;52.826;-1.192;2022-08-07T11:37:36;101928.34;;;27.15;30.12
46756;BME280;32506;52.826;-1.192;2022-08-07T11:40:28;101935.44;;;27.21;29.54
46756;BME280;32506;52.826;-1.192;2022-08-07T11:46:13;101927.28;;;27.35;30.01
46756;BME280;32506;52.826;-1.192;2022-08-07T11:48:56;101922.88;;;27.39;29.31
46756;BME280;32506;52.826;-1.192;2022-08-07T12:05:28;101928.44;;;27.91;28.15
46756;BME280;32506;52.826;-1.192;2022-08-07T12:08:06;101917.38;;;27.96;28.41
46756;BME280;32506;52.826;-1.192;2022-08-07T12:16:00;101923.09;;;28.19;28.17
46756;BME280;32506;52.826;-1.192;2022-08-07T12:18:47;101908.25;;;28.20;27.77
46756;BME280;32506;52.826;-1.192;2022-08-07T12:27:07;101917.84;;;28.37;27.86
46756;BME280;32506;52.826;-1.192;2022-08-07T12:29:52;101920.94;;;28.49;27.48
46756;BME280;32506;52.826;-1.192;2022-08-07T12:32:26;101917.28;;;28.54;26.84
46756;BME280;32506;52.826;-1.192;2022-08-07T12:34:55;101918.50;;;28.61;26.91
46756;BME280;32506;52.826;-1.192;2022-08-07T12:37:23;101909.56;;;28.70;26.69
46756;BME280;32506;52.826;-1.192;2022-08-07T12:39:51;101913.88;;;28.76;26.55
46756;BME280;32506;52.826;-1.192;2022-08-07T12:42:24;101906.03;;;28.83;26.54
46756;BME280;32506;52.826;-1.192;2022-08-07T12:44:50;101903.47;;;28.87;26.57
46756;BME280;32506;52.826;-1.192;2022-08-07T12:47:31;101900.31;;;28.93;26.52
46756;BME280;32506;52.826;-1.192;2022-08-07T12:50:07;101902.16;;;28.98;26.54
46756;BME280;32506;52.826;-1.192;2022-08-07T12:52:47;101892.97;;;29.03;26.07
46756;BME280;32506;52.826;-1.192;2022-08-07T12:55:24;101896.34;;;29.00;25.78
46756;BME280;32506;52.826;-1.192;2022-08-07T12:57:52;101900.94;;;28.90;26.27
46756;BME280;32506;52.826;-1.192;2022-08-07T13:00:28;101895.44;;;28.90;27.03
46756;BME280;32506;52.826;-1.192;2022-08-07T13:11:45;101894.50;;;29.09;26.01
46756;BME280;32506;52.826;-1.192;2022-08-07T13:14:42;101890.03;;;29.13;26.21
46756;BME280;32506;52.826;-1.192;2022-08-07T13:20:26;101884.69;;;29.17;26.70
46756;BME280;32506;52.826;-1.192;2022-08-07T13:23:12;101881.53;;;29.23;26.79
46756;BME280;32506;52.826;-1.192;2022-08-07T13:26:00;101876.34;;;29.36;26.52
46756;BME280;32506;52.826;-1.192;2022-08-07T13:28:33;101879.81;;;29.41;25.95
46756;BME280;32506;52.826;-1.192;2022-08-07T13:31:03;101880.69;;;29.51;25.40
46756;BME280;32506;52.826;-1.192;2022-08-07T13:33:36;101873.59;;;29.58;24.84
46756;BME280;32506;52.826;-1.192;2022-08-07T13:36:07;101872.25;;;29.70;25.65
46756;BME280;32506;52.826;-1.192;2022-08-07T13:38:43;101867.78;;;29.83;25.34
46756;BME280;32506;52.826;-1.192;2022-08-07T13:43:47;101864.25;;;30.05;24.83
46756;BME280;32506;52.826;-1.192;2022-08-07T13:46:15;101861.72;;;30.17;25.17
46756;BME280;32506;52.826;-1.192;2022-08-07T13:48:45;101859.84;;;30.26;24.01
46756;BME280;32506;52.826;-1.192;2022-08-07T13:51:14;101859.38;;;30.33;24.44
46756;BME280;32506;52.826;-1.192;2022-08-07T13:53:41;101856.50;;;30.38;24.26
46756;BME280;32506;52.826;-1.192;2022-08-07T13:56:11;101853.78;;;30.47;24.59
46756;BME280;32506;52.826;-1.192;2022-08-07T13:58:42;101861.78;;;30.57;24.53
46756;BME280;32506;52.826;-1.192;2022-08-07T14:01:32;101845.44;;;30.70;24.59
46756;BME280;32506;52.826;-1.192;2022-08-07T14:04:07;101852.31;;;30.81;24.43
46756;BME280;32506;52.826;-1.192;2022-08-07T14:06:39;101847.44;;;30.87;24.24
46756;BME280;32506;52.826;-1.192;2022-08-07T14:09:06;101831.22;;;30.94;24.33
46756;BME280;32506;52.826;-1.192;2022-08-07T14:11:41;101835.97;;;31.02;23.83
46756;BME280;32506;52.826;-1.192;2022-08-07T14:14:10;101841.31;;;31.07;23.57
46756;BME280;32506;52.826;-1.192;2022-08-07T14:16:42;101838.75;;;31.11;24.02
46756;BME280;32506;52.826;-1.192;2022-08-07T14:19:29;101827.53;;;31.16;23.61
46756;BME280;32506;52.826;-1.192;2022-08-07T14:22:00;101836.63;;;31.08;23.56
46756;BME280;32506;52.826;-1.192;2022-08-07T14:24:40;101837.88;;;31.02;23.92
46756;BME280;32506;52.826;-1.192;2022-08-07T14:27:10;101840.31;;;30.94;24.29
46756;BME280;32506;52.826;-1.192;2022-08-07T14:29:46;101843.41;;;30.93;24.23
46756;BME280;32506;52.826;-1.192;2022-08-07T14:32:13;101836.06;;;30.88;23.65
46756;BME280;32506;52.826;-1.192;2022-08-07T14:34:44;101836.72;;;30.85;23.67
46756;BME280;32506;52.826;-1.192;2022-08-07T14:37:11;101834.16;;;30.89;24.06
46756;BME280;32506;52.826;-1.192;2022-08-07T14:39:40;101830.25;;;30.99;24.14
46756;BME280;32506;52.826;-1.192;2022-08-07T14:42:10;101828.69;;;31.06;24.47
46756;BME280;32506;52.826;-1.192;2022-08-07T14:44:43;101829.81;;;31.14;24.35
46756;BME280;32506;52.826;-1.192;2022-08-07T14:47:13;101813.75;;;31.16;24.09
46756;BME280;32506;52.826;-1.192;2022-08-07T14:49:40;101820.56;;;31.19;24.46
46756;BME280;32506;52.826;-1.192;2022-08-07T14:52:07;101817.66;;;31.24;24.51
46756;BME280;32506;52.826;-1.192;2022-08-07T14:54:36;101813.91;;;31.28;24.25
46756;BME280;32506;52.826;-1.192;2022-08-07T14:57:04;101812.13;;;31.33;23.75
46756;BME280;32506;52.826;-1.192;2022-08-07T14:59:35;101807.09;;;31.35;24.12
46756;BME280;32506;52.826;-1.192;2022-08-07T15:02:16;101808.06;;;31.39;24.21
46756;BME280;32506;52.826;-1.192;2022-08-07T15:04:45;101805.28;;;31.30;24.07
46756;BME280;32506;52.826;-1.192;2022-08-07T15:07:16;101803.34;;;31.31;23.98
46756;BME280;32506;52.826;-1.192;2022-08-07T15:09:43;101808.88;;;31.39;24.22
46756;BME280;32506;52.826;-1.192;2022-08-07T15:12:12;101800.41;;;31.36;24.11
46756;BME280;32506;52.826;-1.192;2022-08-07T15:14:50;101791.50;;;31.39;24.13
46756;BME280;32506;52.826;-1.192;2022-08-07T15:17:19;101795.06;;;31.39;24.04
46756;BME280;32506;52.826;-1.192;2022-08-07T15:19:55;101798.78;;;31.43;24.56
46756;BME280;32506;52.826;-1.192;2022-08-07T15:22:29;101799.13;;;31.51;24.32
46756;BME280;32506;52.826;-1.192;2022-08-07T15:24:57;101798.28;;;31.50;24.26
46756;BME280;32506;52.826;-1.192;2022-08-07T15:27:26;101803.19;;;31.53;24.29
46756;BME280;32506;52.826;-1.192;2022-08-07T15:29:59;101799.25;;;31.54;24.15
46756;BME280;32506;52.826;-1.192;2022-08-07T15:32:26;101801.22;;;31.54;23.95
46756;BME280;32506;52.826;-1.192;2022-08-07T15:34:54;101798.28;;;31.50;24.12
46756;BME280;32506;52.826;-1.192;2022-08-07T15:37:25;101798.16;;;31.46;24.23
46756;BME280;32506;52.826;-1.192;2022-08-07T15:40:02;101790.50;;;31.43;23.65
46756;BME280;32506;52.826;-1.192;2022-08-07T15:43:02;101792.13;;;31.44;23.42
46756;BME280;32506;52.826;-1.192;2022-08-07T15:45:33;101791.81;;;31.37;24.03
46756;BME280;32506;52.826;-1.192;2022-08-07T15:48:05;101782.25;;;31.35;23.80
46756;BME280;32506;52.826;-1.192;2022-08-07T15:50:35;101776.22;;;31.33;23.90
46756;BME280;32506;52.826;-1.192;2022-08-07T15:53:14;101785.97;;;31.30;23.65
46756;BME280;32506;52.826;-1.192;2022-08-07T15:55:49;101786.13;;;31.25;24.16
46756;BME280;32506;52.826;-1.192;2022-08-07T15:58:16;101781.75;;;31.24;24.31
46756;BME280;32506;52.826;-1.192;2022-08-07T16:00:48;101785.16;;;31.21;24.14
46756;BME280;32506;52.826;-1.192;2022-08-07T16:03:17;101784.19;;;31.17;24.55
46756;BME280;32506;52.826;-1.192;2022-08-07T16:05:46;101788.88;;;31.07;24.44
46756;BME280;32506;52.826;-1.192;2022-08-07T16:08:15;101784.63;;;31.01;24.56
46756;BME280;32506;52.826;-1.192;2022-08-07T16:10:45;101785.13;;;30.94;25.08
46756;BME280;32506;52.826;-1.192;2022-08-07T16:21:08;101785.44;;;30.75;24.85
46756;BME280;32506;52.826;-1.192;2022-08-07T16:24:06;101787.69;;;30.73;25.06
46756;BME280;32506;52.826;-1.192;2022-08-07T16:29:48;101782.47;;;30.63;25.01
46756;BME280;32506;52.826;-1.192;2022-08-07T16:33:19;101785.22;;;30.54;25.13
46756;BME280;32506;52.826;-1.192;2022-08-07T16:35:33;101782.41;;;30.45;25.22
46756;BME280;32506;52.826;-1.192;2022-08-07T16:44:09;101775.16;;;30.27;25.23
46756;BME280;32506;52.826;-1.192;2022-08-07T16:46:59;101780.66;;;30.18;25.19
46756;BME280;32506;52.826;-1.192;2022-08-07T16:50:36;101771.22;;;30.10;25.74
46756;BME280;32506;52.826;-1.192;2022-08-07T16:55:32;101772.13;;;29.97;25.93
46756;BME280;32506;52.826;-1.192;2022-08-07T16:58:04;101770.16;;;29.89;26.03